Time;durP1;ratioP1;P1;durP2;ratioP2;P2;SDS_P1;SDS_P2;PMS_P1;PMS_P2;Temp;Humidity;BMP_temperature;BMP_pressure;BME280_temperature;BME280_humidity;BME280_pressure;Samples;Min_cycle;Max_cycle;Signal;HPM_P1;HPM_P2
2022/09/20 00:01:23;;;;;;;;;;;;;;;;;;5045955;28;19955;-62
2022/09/20 00:03:49;;;;;;;;;;;;;;;;;;5046684;28;19912;-62
2022/09/20 00:06:16;;;;;;;;;;;;;;;;;;5046870;28;20376;-62
2022/09/20 00:08:41;;;;;;;;;;;;;;;;;;5047458;28;19912;-62
2022/09/20 00:11:08;;;;;;;;;;;;;;;;;;5046363;28;19908;-61
2022/09/20 00:13:35;;;;;;;;;;;;;;;;;;5029283;28;19912;-62
2022/09/20 00:16:02;;;;;;;;;;;;;;;;;;5046168;28;19904;-62
2022/09/20 00:18:28;;;;;;;;;;;;;;;;;;5046978;28;19931;-61
2022/09/20 00:20:54;;;;;;;;;;;;;;;;;;5046375;28;19905;-62
2022/09/20 00:23:19;;;;;;;;;;;;;;;;;;5046812;28;20340;-62
2022/09/20 00:25:46;;;;;;;;;;;;;;;;;;5045997;28;19920;-62
2022/09/20 00:28:13;;;;;;;;;;;;;;;;;;5047113;28;19912;-62
2022/09/20 00:30:39;;;;;;;;;;;;;;;;;;5047110;28;19987;-62
2022/09/20 00:33:05;;;;;;;;;;;;;;;;;;5045976;28;20000;-62
2022/09/20 00:35:31;;;;;;;;;;;;;;;;;;5046562;28;19928;-62
2022/09/20 00:37:58;;;;;;;;;;;;;;;;;;5045994;28;19909;-62
2022/09/20 00:40:27;;;;;;;;;;;;;;;;;;5046021;28;19908;-62
2022/09/20 00:42:53;;;;;;;;;;;;;;;;;;5045871;28;19912;-62
2022/09/20 00:45:20;;;;;;;;;;;;;;;;;;5046082;28;19911;-62
2022/09/20 00:47:46;;;;;;;;;;;;;;;;;;5045995;28;19908;-62
2022/09/20 00:50:12;;;;;;;;;;;;;;;;;;5046681;28;19911;-62
2022/09/20 00:52:38;;;;;;;;;;;;;;;;;;5046029;28;19913;-62
2022/09/20 00:55:05;;;;;;;;;;;;;;;;;;5045626;28;20396;-61
2022/09/20 00:57:34;;;;;;;;;;;;;;;;;;5045745;28;19932;-62
2022/09/20 01:00:00;;;;;;;;;;;;;;;;;;5045733;28;19940;-62
2022/09/20 01:02:27;;;;;;;;;;;;;;;;;;5045735;28;19967;-63
2022/09/20 01:04:52;;;;;;;;;;;;;;;;;;5045617;28;19914;-62
2022/09/20 01:07:18;;;;;;;;;;;;;;;;;;5045395;28;19913;-62
2022/09/20 01:09:44;;;;;;;;;;;;;;;;;;5046094;28;20304;-63
2022/09/20 01:12:11;;;;;;;;;;;;;;;;;;5045553;28;19913;-62
2022/09/20 01:14:37;;;;;;;;;;;;;;;;;;5045648;28;19912;-62
2022/09/20 01:17:03;;;;;;;;;;;;;;;;;;5045013;28;19908;-61
2022/09/20 01:19:29;;;;;;;;;;;;;;;;;;5045565;28;19905;-62
2022/09/20 01:21:55;;;;;;;;;;;;;;;;;;5045094;28;20453;-62
2022/09/20 01:24:21;;;;;;;;;;;;;;;;;;5045394;28;20007;-63
2022/09/20 01:26:47;;;;;;;;;;;;;;;;;;5044969;28;19930;-62
2022/09/20 01:29:13;;;;;;;;;;;;;;;;;;5046089;28;19913;-63
2022/09/20 01:31:40;;;;;;;;;;;;;;;;;;5045579;28;20395;-62
2022/09/20 01:34:07;;;;;;;;;;;;;;;;;;5045141;28;20415;-63
2022/09/20 01:36:33;;;;;;;;;;;;;;;;;;5045025;28;19905;-62
2022/09/20 01:38:58;;;;;;;;;;;;;;;;;;5044897;28;19995;-62
2022/09/20 01:41:25;;;;;;;;;;;;;;;;;;5045438;28;20181;-62
2022/09/20 01:43:52;;;;;;;;;;;;;;;;;;5045161;28;19905;-62
2022/09/20 01:46:18;;;;;;;;;;;;;;;;;;5044963;28;19944;-62
2022/09/20 01:48:45;;;;;;;;;;;;;;;;;;5027626;28;19951;-62
2022/09/20 01:51:11;;;;;;;;;;;;;;;;;;5045388;28;19950;-62
2022/09/20 01:53:38;;;;;;;;;;;;;;;;;;5044870;28;20368;-62
2022/09/20 01:56:05;;;;;;;;;;;;;;;;;;5026738;28;20190;-62
2022/09/20 01:58:32;;;;;;;;;;;;;;;;;;5044923;28;19995;-62
2022/09/20 02:00:58;;;;;;;;;;;;;;;;;;5045242;28;20288;-62
2022/09/20 02:03:25;;;;;;;;;;;;;;;;;;5045128;28;19916;-62
2022/09/20 02:05:50;;;;;;;;;;;;;;;;;;5045164;28;19936;-61
2022/09/20 02:08:16;;;;;;;;;;;;;;;;;;5045319;28;20363;-62
2022/09/20 02:10:42;;;;;;;;;;;;;;;;;;5046177;28;19908;-62
2022/09/20 02:13:09;;;;;;;;;;;;;;;;;;5044867;28;20392;-62
2022/09/20 02:15:35;;;;;;;;;;;;;;;;;;5045363;28;20636;-61
2022/09/20 02:18:01;;;;;;;;;;;;;;;;;;5044839;28;19984;-62
2022/09/20 02:20:28;;;;;;;;;;;;;;;;;;5045442;28;19908;-62
2022/09/20 02:22:54;;;;;;;;;;;;;;;;;;5044904;28;19913;-63
2022/09/20 02:25:20;;;;;;;;;;;;;;;;;;5049263;28;20399;-62
2022/09/20 02:27:47;;;;;;;;;;;;;;;;;;5048911;28;19916;-62
2022/09/20 02:30:13;;;;;;;;;;;;;;;;;;5049793;28;20410;-62
2022/09/20 02:32:39;;;;;;;;;;;;;;;;;;5049526;28;19909;-63
2022/09/20 02:35:05;;;;;;;;;;;;;;;;;;5049075;28;19913;-63
2022/09/20 02:37:31;;;;;;;;;;;;;;;;;;5048627;28;20035;-62
2022/09/20 02:39:58;;;;;;;;;;;;;;;;;;5048576;28;20306;-62
2022/09/20 02:42:25;;;;;;;;;;;;;;;;;;5048804;28;19913;-62
2022/09/20 02:44:53;;;;;;;;;;;;;;;;;;5048444;28;19955;-62
2022/09/20 02:47:19;;;;;;;;;;;;;;;;;;5048665;28;20351;-62
2022/09/20 02:49:45;;;;;;;;;;;;;;;;;;5049160;28;19908;-63
2022/09/20 02:52:12;;;;;;;;;;;;;;;;;;5048843;28;20109;-62
2022/09/20 02:54:38;;;;;;;;;;;;;;;;;;5048568;28;20404;-62
2022/09/20 02:57:04;;;;;;;;;;;;;;;;;;5048135;28;19909;-62
2022/09/20 02:59:30;;;;;;;;;;;;;;;;;;5048714;28;19962;-62
2022/09/20 03:01:56;;;;;;;;;;;;;;;;;;5048218;28;19948;-63
2022/09/20 03:04:21;;;;;;;;;;;;;;;;;;5048500;28;19911;-62
2022/09/20 03:06:48;;;;;;;;;;;;;;;;;;5047759;28;19901;-62
2022/09/20 03:09:16;;;;;;;;;;;;;;;;;;5048562;28;20391;-62
2022/09/20 03:11:43;;;;;;;;;;;;;;;;;;5048902;28;19919;-62
2022/09/20 03:14:09;;;;;;;;;;;;;;;;;;5047992;28;20012;-62
2022/09/20 03:16:36;;;;;;;;;;;;;;;;;;5047973;28;19904;-62
2022/09/20 03:19:02;;;;;;;;;;;;;;;;;;5047933;28;19968;-62
2022/09/20 03:21:28;;;;;;;;;;;;;;;;;;5048158;28;19912;-62
2022/09/20 03:23:55;;;;;;;;;;;;;;;;;;5047628;28;19957;-62
2022/09/20 03:26:21;;;;;;;;;;;;;;;;;;5047911;28;19975;-62
2022/09/20 03:28:47;;;;;;;;;;;;;;;;;;5047966;28;19912;-61
2022/09/20 03:31:14;;;;;;;;;;;;;;;;;;5030645;28;20379;-62
2022/09/20 03:33:40;;;;;;;;;;;;;;;;;;5048501;28;19908;-62
2022/09/20 03:36:09;;;;;;;;;;;;;;;;;;5047544;28;20361;-62
2022/09/20 03:38:35;;;;;;;;;;;;;;;;;;5047605;28;19915;-62
2022/09/20 03:41:02;;;;;;;;;;;;;;;;;;5047255;28;19905;-62
2022/09/20 03:43:29;;;;;;;;;;;;;;;;;;5047668;28;20310;-62
2022/09/20 03:45:55;;;;;;;;;;;;;;;;;;5047420;28;19908;-62
2022/09/20 03:48:21;;;;;;;;;;;;;;;;;;5047588;28;20372;-62
2022/09/20 03:50:47;;;;;;;;;;;;;;;;;;5047323;28;19905;-62
2022/09/20 03:53:13;;;;;;;;;;;;;;;;;;5047856;28;19913;-62
2022/09/20 03:55:40;;;;;;;;;;;;;;;;;;5047758;28;19909;-62
2022/09/20 03:58:08;;;;;;;;;;;;;;;;;;5046976;28;19948;-62
2022/09/20 04:00:36;;;;;;;;;;;;;;;;;;5047600;28;19914;-62
2022/09/20 04:03:01;;;;;;;;;;;;;;;;;;5046955;28;19908;-63
2022/09/20 04:05:27;;;;;;;;;;;;;;;;;;5047385;28;19905;-63
2022/09/20 04:07:54;;;;;;;;;;;;;;;;;;5046727;28;20398;-63
2022/09/20 04:10:20;;;;;;;;;;;;;;;;;;5047064;28;19920;-62
2022/09/20 04:12:46;;;;;;;;;;;;;;;;;;5046899;28;19913;-62
2022/09/20 04:15:14;;;;;;;;;;;;;;;;;;5047868;28;19920;-62
2022/09/20 04:17:41;;;;;;;;;;;;;;;;;;5047667;28;19909;-62
2022/09/20 04:20:07;;;;;;;;;;;;;;;;;;5046899;28;19908;-63
2022/09/20 04:22:35;;;;;;;;;;;;;;;;;;5046618;28;19909;-62
2022/09/20 04:25:00;;;;;;;;;;;;;;;;;;5046690;28;20283;-62
2022/09/20 04:27:28;;;;;;;;;;;;;;;;;;5046804;28;19905;-62
2022/09/20 04:29:55;;;;;;;;;;;;;;;;;;5046671;28;19927;-62
2022/09/20 04:32:21;;;;;;;;;;;;;;;;;;5046846;28;19905;-62
2022/09/20 04:37:32;;;;;;;;;;;;;;;;;;5046448;28;20426;-63
2022/09/20 04:39:58;;;;;;;;;;;;;;;;;;5046280;28;20430;-62
2022/09/20 04:42:26;;;;;;;;;;;;;;;;;;5046431;28;20007;-63
2022/09/20 04:44:53;;;;;;;;;;;;;;;;;;5046361;28;19966;-62
2022/09/20 04:47:20;;;;;;;;;;;;;;;;;;5046001;28;19904;-63
2022/09/20 04:49:45;;;;;;;;;;;;;;;;;;5046482;28;20244;-62
2022/09/20 04:52:11;;;;;;;;;;;;;;;;;;5046618;28;20291;-62
2022/09/20 04:54:39;;;;;;;;;;;;;;;;;;5046406;28;19904;-62
2022/09/20 04:57:06;;;;;;;;;;;;;;;;;;5046060;28;19916;-62
2022/09/20 04:59:32;;;;;;;;;;;;;;;;;;5046202;28;19909;-62
2022/09/20 05:01:58;;;;;;;;;;;;;;;;;;5045962;28;19915;-62
2022/09/20 05:04:25;;;;;;;;;;;;;;;;;;5046168;28;19905;-62
2022/09/20 05:06:51;;;;;;;;;;;;;;;;;;5045718;28;19970;-62
2022/09/20 05:09:17;;;;;;;;;;;;;;;;;;5045791;28;20013;-62
2022/09/20 05:11:45;;;;;;;;;;;;;;;;;;5046480;28;19913;-61
2022/09/20 05:14:12;;;;;;;;;;;;;;;;;;5046589;28;19979;-61
2022/09/20 05:16:38;;;;;;;;;;;;;;;;;;5028582;28;20379;-61
2022/09/20 05:19:05;;;;;;;;;;;;;;;;;;5046667;28;19908;-61
2022/09/20 05:21:31;;;;;;;;;;;;;;;;;;5030420;28;20276;-61
2022/09/20 05:23:57;;;;;;;;;;;;;;;;;;5026914;28;19912;-61
2022/09/20 05:26:23;;;;;;;;;;;;;;;;;;5026891;28;19927;-61
2022/09/20 05:28:49;;;;;;;;;;;;;;;;;;5026717;28;19905;-61
2022/09/20 05:31:15;;;;;;;;;;;;;;;;;;5047052;28;19958;-62
2022/09/20 05:33:42;;;;;;;;;;;;;;;;;;5047603;28;19918;-61
2022/09/20 05:36:08;;;;;;;;;;;;;;;;;;5046265;28;19915;-61
2022/09/20 05:38:34;;;;;;;;;;;;;;;;;;5046652;28;19912;-61
2022/09/20 05:41:00;;;;;;;;;;;;;;;;;;5046589;28;19928;-61
2022/09/20 05:43:27;;;;;;;;;;;;;;;;;;5047016;28;19915;-61
2022/09/20 05:45:53;;;;;;;;;;;;;;;;;;5046764;28;19905;-61
2022/09/20 05:48:19;;;;;;;;;;;;;;;;;;5046859;28;20280;-61
2022/09/20 05:50:45;;;;;;;;;;;;;;;;;;5046024;28;19915;-61
2022/09/20 05:53:11;;;;;;;;;;;;;;;;;;5047259;28;19989;-61
2022/09/20 05:55:37;;;;;;;;;;;;;;;;;;5046831;28;19905;-61
2022/09/20 05:58:03;;;;;;;;;;;;;;;;;;5045764;28;19904;-61
2022/09/20 06:00:29;;;;;;;;;;;;;;;;;;5046899;28;19901;-61
2022/09/20 06:02:58;;;;;;;;;;;;;;;;;;5046087;28;20003;-61
2022/09/20 06:05:24;;;;;;;;;;;;;;;;;;5043573;28;19909;-61
2022/09/20 06:07:50;;;;;;;;;;;;;;;;;;5047432;28;19912;-61
2022/09/20 06:10:18;;;;;;;;;;;;;;;;;;5045945;28;20379;-62
2022/09/20 06:12:44;;;;;;;;;;;;;;;;;;5046819;28;19912;-62
2022/09/20 06:15:10;;;;;;;;;;;;;;;;;;5038378;28;20335;-61
2022/09/20 06:17:37;;;;;;;;;;;;;;;;;;5046541;28;19913;-61
2022/09/20 06:20:03;;;;;;;;;;;;;;;;;;5046859;28;19949;-61
2022/09/20 06:22:29;;;;;;;;;;;;;;;;;;5046487;28;20014;-61
2022/09/20 06:24:55;;;;;;;;;;;;;;;;;;5045715;28;19959;-61
2022/09/20 06:27:21;;;;;;;;;;;;;;;;;;5046890;28;19904;-61
2022/09/20 06:29:47;;;;;;;;;;;;;;;;;;5045907;28;19909;-61
2022/09/20 06:32:13;;;;;;;;;;;;;;;;;;5047390;28;19912;-61
2022/09/20 06:34:39;;;;;;;;;;;;;;;;;;5046287;28;20032;-61
2022/09/20 06:42:34;;;;;;;;;;;;;;;;;;5032463;28;20311;-61
2022/09/20 06:45:00;;;;;;;;;;;;;;;;;;5045372;28;19913;-61
2022/09/20 06:47:27;;;;;;;;;;;;;;;;;;5047055;28;19920;-61
2022/09/20 06:49:53;;;;;;;;;;;;;;;;;;5045448;28;19905;-62
2022/09/20 06:52:19;;;;;;;;;;;;;;;;;;5046708;28;19935;-61
2022/09/20 06:54:46;;;;;;;;;;;;;;;;;;5045162;28;19905;-61
2022/09/20 06:57:11;;;;;;;;;;;;;;;;;;5047471;28;20042;-61
2022/09/20 06:59:38;;;;;;;;;;;;;;;;;;5044255;28;19999;-62
2022/09/20 07:02:04;;;;;;;;;;;;;;;;;;5046076;28;20003;-61
2022/09/20 07:04:31;;;;;;;;;;;;;;;;;;5044450;28;20043;-62
2022/09/20 07:06:58;;;;;;;;;;;;;;;;;;5044735;28;20017;-61
2022/09/20 07:09:25;;;;;;;;;;;;;;;;;;5045745;28;19911;-62
2022/09/20 07:11:51;;;;;;;;;;;;;;;;;;5048349;28;19916;-61
2022/09/20 07:14:18;;;;;;;;;;;;;;;;;;5048301;28;19913;-62
2022/09/20 07:16:44;;;;;;;;;;;;;;;;;;5047593;28;19908;-61
2022/09/20 07:19:10;;;;;;;;;;;;;;;;;;5048633;28;19912;-61
2022/09/20 07:21:37;;;;;;;;;;;;;;;;;;5048261;28;19956;-62
2022/09/20 07:24:04;;;;;;;;;;;;;;;;;;5048300;28;20453;-62
2022/09/20 07:26:30;;;;;;;;;;;;;;;;;;5048273;28;19905;-62
2022/09/20 07:28:57;;;;;;;;;;;;;;;;;;5047933;28;20158;-62
2022/09/20 07:31:23;;;;;;;;;;;;;;;;;;5046043;28;19987;-62
2022/09/20 07:33:49;;;;;;;;;;;;;;;;;;5046551;28;19955;-61
2022/09/20 07:36:18;;;;;;;;;;;;;;;;;;5045359;28;19908;-61
2022/09/20 07:38:45;;;;;;;;;;;;;;;;;;5047491;28;19908;-62
2022/09/20 07:41:11;;;;;;;;;;;;;;;;;;5048521;28;19970;-61
2022/09/20 07:43:37;;;;;;;;;;;;;;;;;;5049858;28;19909;-61
2022/09/20 07:46:03;;;;;;;;;;;;;;;;;;5048458;28;19988;-61
2022/09/20 07:48:29;;;;;;;;;;;;;;;;;;5048168;28;19912;-61
2022/09/20 07:50:55;;;;;;;;;;;;;;;;;;5046536;28;20368;-61
2022/09/20 07:53:21;;;;;;;;;;;;;;;;;;5047960;28;19909;-61
2022/09/20 07:55:48;;;;;;;;;;;;;;;;;;5046288;28;19916;-61
2022/09/20 07:58:14;;;;;;;;;;;;;;;;;;5047365;28;20403;-62
2022/09/20 08:00:40;;;;;;;;;;;;;;;;;;5045235;28;19909;-62
2022/09/20 08:03:07;;;;;;;;;;;;;;;;;;5047882;28;19915;-61
2022/09/20 08:05:34;;;;;;;;;;;;;;;;;;5046333;28;19996;-61
2022/09/20 08:08:01;;;;;;;;;;;;;;;;;;5047908;28;19911;-62
2022/09/20 08:10:27;;;;;;;;;;;;;;;;;;5046627;28;20359;-62
2022/09/20 08:12:53;;;;;;;;;;;;;;;;;;5048101;28;19958;-62
2022/09/20 08:15:19;;;;;;;;;;;;;;;;;;5042062;28;19909;-62
2022/09/20 08:17:47;;;;;;;;;;;;;;;;;;5044172;28;19912;-62
2022/09/20 08:20:13;;;;;;;;;;;;;;;;;;5046461;28;19913;-62
2022/09/20 08:22:41;;;;;;;;;;;;;;;;;;5047171;28;19919;-62
2022/09/20 08:25:07;;;;;;;;;;;;;;;;;;5045941;28;19997;-61
2022/09/20 08:27:33;;;;;;;;;;;;;;;;;;5047773;28;19955;-62
2022/09/20 08:30:00;;;;;;;;;;;;;;;;;;5045737;28;19905;-61
2022/09/20 08:32:26;;;;;;;;;;;;;;;;;;5047589;28;19914;-61
2022/09/20 08:34:52;;;;;;;;;;;;;;;;;;5046080;28;20366;-61
2022/09/20 08:37:18;;;;;;;;;;;;;;;;;;5047025;28;19998;-62
2022/09/20 08:39:44;;;;;;;;;;;;;;;;;;5046728;28;20139;-62
2022/09/20 08:42:11;;;;;;;;;;;;;;;;;;5047344;28;20522;-61
2022/09/20 08:44:37;;;;;;;;;;;;;;;;;;5046196;28;19913;-62
2022/09/20 08:47:04;;;;;;;;;;;;;;;;;;5047004;28;20356;-61
2022/09/20 08:49:30;;;;;;;;;;;;;;;;;;5046027;28;19905;-62
2022/09/20 08:51:57;;;;;;;;;;;;;;;;;;5046494;28;19996;-62
2022/09/20 08:54:23;;;;;;;;;;;;;;;;;;5046254;28;19943;-62
2022/09/20 08:56:50;;;;;;;;;;;;;;;;;;5047498;28;19951;-62
2022/09/20 08:59:17;;;;;;;;;;;;;;;;;;5057067;28;20372;-62
2022/09/20 09:01:43;;;;;;;;;;;;;;;;;;5046919;28;19916;-62
2022/09/20 09:04:09;;;;;;;;;;;;;;;;;;5046324;28;19911;-62
2022/09/20 09:06:35;;;;;;;;;;;;;;;;;;5045797;28;19911;-62
2022/09/20 09:09:01;;;;;;;;;;;;;;;;;;5046207;28;19950;-62
2022/09/20 09:11:27;;;;;;;;;;;;;;;;;;5045807;28;19966;-61
2022/09/20 09:13:53;;;;;;;;;;;;;;;;;;5046232;28;19908;-61
2022/09/20 09:16:19;;;;;;;;;;;;;;;;;;5045189;28;19909;-61
2022/09/20 09:18:45;;;;;;;;;;;;;;;;;;5042360;28;19909;-62
2022/09/20 09:21:11;;;;;;;;;;;;;;;;;;5045787;28;19904;-62
2022/09/20 09:23:36;;;;;;;;;;;;;;;;;;5046585;28;19912;-61
2022/09/20 09:26:02;;;;;;;;;;;;;;;;;;5044988;28;20333;-61
2022/09/20 09:28:31;;;;;;;;;;;;;;;;;;5046335;28;20403;-61
2022/09/20 09:30:57;;;;;;;;;;;;;;;;;;5045346;28;19908;-61
2022/09/20 09:33:24;;;;;;;;;;;;;;;;;;5047006;28;19931;-62
2022/09/20 09:35:49;;;;;;;;;;;;;;;;;;5046430;28;19904;-61
2022/09/20 09:38:16;;;;;;;;;;;;;;;;;;5047317;28;19908;-61
2022/09/20 09:40:42;;;;;;;;;;;;;;;;;;5047082;28;19911;-61
2022/09/20 09:43:08;;;;;;;;;;;;;;;;;;5047252;28;19912;-61
2022/09/20 09:45:37;;;;;;;;;;;;;;;;;;5045985;28;19905;-61
2022/09/20 09:48:03;;;;;;;;;;;;;;;;;;5047300;28;19999;-61
2022/09/20 09:50:29;;;;;;;;;;;;;;;;;;5045830;28;19911;-61
2022/09/20 09:52:56;;;;;;;;;;;;;;;;;;5047564;28;19905;-61
2022/09/20 09:55:22;;;;;;;;;;;;;;;;;;5045969;28;19912;-62
2022/09/20 09:57:52;;;;;;;;;;;;;;;;;;5046870;28;20003;-62
2022/09/20 10:00:18;;;;;;;;;;;;;;;;;;5045125;28;19920;-62
2022/09/20 10:02:44;;;;;;;;;;;;;;;;;;5046985;28;19981;-62
2022/09/20 10:05:10;;;;;;;;;;;;;;;;;;5044263;28;19913;-62
2022/09/20 10:07:36;;;;;;;;;;;;;;;;;;5045296;28;19916;-62
2022/09/20 10:10:03;;;;;;;;;;;;;;;;;;5045344;28;19962;-62
2022/09/20 10:12:29;;;;;;;;;;;;;;;;;;5047148;28;19920;-62
2022/09/20 10:14:56;;;;;;;;;;;;;;;;;;5045927;28;19909;-62
2022/09/20 10:17:22;;;;;;;;;;;;;;;;;;5046024;28;19940;-62
2022/09/20 10:19:47;;;;;;;;;;;;;;;;;;5046253;28;19962;-62
2022/09/20 10:22:18;;;;;;;;;;;;;;;;;;5046895;28;19916;-62
2022/09/20 10:24:44;;;;;;;;;;;;;;;;;;5046958;28;19928;-62
2022/09/20 10:27:10;;;;;;;;;;;;;;;;;;5046559;28;20372;-62
2022/09/20 10:29:36;;;;;;;;;;;;;;;;;;5046458;28;19983;-62
2022/09/20 10:32:04;;;;;;;;;;;;;;;;;;5046181;28;19935;-62
2022/09/20 10:34:30;;;;;;;;;;;;;;;;;;5046241;28;19995;-62
2022/09/20 10:37:00;;;;;;;0.80;0.40;;;;;;;;;;5045084;28;21005;-61
2022/09/20 10:39:33;;;;;;;0.80;0.68;;;;;;;;;;5045930;28;20029;-61
2022/09/20 10:45:22;;;;;;;1.27;0.70;;;;;;;;;;5047692;28;20838;-61
2022/09/20 10:48:00;;;;;;;1.30;0.43;;;;;;;;;;5048702;28;20056;-61
2022/09/20 10:50:45;;;;;;;0.25;0.25;;;;;;;;;;5048112;28;20021;-61
2022/09/20 10:53:30;;;;;;;0.80;0.52;;;;;;;;;;5048337;28;20509;-61
2022/09/20 10:55:58;;;;;;;;;;;;;;;;;;5048027;28;20055;-61
2022/09/20 10:58:30;;;;;;;0.45;0.40;;;;;;;;;;5047868;28;19916;-61
2022/09/20 11:00:58;;;;;;;;;;;;;;;;;;5047891;28;20048;-62
2022/09/20 11:03:24;;;;;;;;;;;;;;;;;;5048307;28;19919;-62
2022/09/20 11:05:51;;;;;;;;;;;;;;;;;;5047988;28;19940;-62
2022/09/20 11:08:18;;;;;;;;;;;;;;;;;;5047147;28;19908;-62
2022/09/20 11:10:45;;;;;;;;;;;;;;;;;;5028414;28;19992;-62
2022/09/20 11:13:10;;;;;;;;;;;;;;;;;;5028503;28;19916;-62
2022/09/20 11:15:36;;;;;;;;;;;;;;;;;;5028130;28;19997;-62
2022/09/20 11:18:02;;;;;;;;;;;;;;;;;;5027573;28;20583;-62
2022/09/20 11:20:28;;;;;;;;;;;;;;;;;;5028068;28;19933;-62
2022/09/20 11:22:54;;;;;;;;;;;;;;;;;;5027652;28;19922;-62
2022/09/20 11:25:21;;;;;;;;;;;;;;;;;;5027570;28;19936;-62
2022/09/20 11:27:47;;;;;;;;;;;;;;;;;;5027604;28;20408;-62
2022/09/20 11:30:13;;;;;;;;;;;;;;;;;;5028321;28;19945;-62
2022/09/20 11:32:43;;;;;;;;;;;;;;;;;;5028285;28;19909;-62
2022/09/20 11:35:10;;;;;;;;;;;;;;;;;;5028066;28;19912;-62
2022/09/20 11:37:36;;;;;;;;;;;;;;;;;;5027746;28;19905;-62
2022/09/20 11:40:02;;;;;;;;;;;;;;;;;;5027361;28;19928;-62
2022/09/20 11:42:28;;;;;;;;;;;;;;;;;;5027737;28;20388;-62
2022/09/20 11:44:55;;;;;;;;;;;;;;;;;;5027513;28;19940;-62
2022/09/20 11:47:21;;;;;;;;;;;;;;;;;;5027241;28;20299;-62
2022/09/20 11:49:46;;;;;;;;;;;;;;;;;;5027469;28;19911;-62
2022/09/20 11:52:12;;;;;;;;;;;;;;;;;;5028204;28;19952;-62
2022/09/20 11:54:38;;;;;;;;;;;;;;;;;;5027467;28;19920;-62
2022/09/20 11:57:06;;;;;;;;;;;;;;;;;;5026892;28;20409;-62
2022/09/20 11:59:33;;;;;;;;;;;;;;;;;;5027485;28;19905;-62
2022/09/20 12:02:01;;;;;;;;;;;;;;;;;;5026846;28;19924;-62
2022/09/20 12:04:28;;;;;;;;;;;;;;;;;;5027438;28;19905;-62
2022/09/20 12:06:55;;;;;;;;;;;;;;;;;;5027101;28;19916;-62
2022/09/20 12:09:21;;;;;;;;;;;;;;;;;;5026926;28;19905;-62
2022/09/20 12:11:47;;;;;;;;;;;;;;;;;;5027096;28;19951;-62
2022/09/20 12:14:13;;;;;;;;;;;;;;;;;;5027822;28;19940;-62
2022/09/20 12:16:39;;;;;;;;;;;;;;;;;;5027232;28;19988;-62
2022/09/20 12:19:06;;;;;;;;;;;;;;;;;;5026744;28;19912;-62
2022/09/20 12:21:32;;;;;;;;;;;;;;;;;;5026894;28;19916;-62
2022/09/20 12:23:58;;;;;;;;;;;;;;;;;;5026442;28;20342;-62
2022/09/20 12:26:24;;;;;;;;;;;;;;;;;;5026885;28;20396;-62
2022/09/20 12:28:50;;;;;;;;;;;;;;;;;;5026507;28;20023;-62
2022/09/20 12:31:16;;;;;;;;;;;;;;;;;;5026621;28;19950;-62
2022/09/20 12:33:42;;;;;;;;;;;;;;;;;;5027466;28;19905;-62
2022/09/20 12:36:08;;;;;;;;;;;;;;;;;;5026484;28;19958;-62
2022/09/20 12:38:36;;;;;;;;;;;;;;;;;;5027036;28;19953;-62
2022/09/20 12:41:02;;;;;;;;;;;;;;;;;;5026289;28;19905;-62
2022/09/20 12:43:28;;;;;;;;;;;;;;;;;;5026486;28;19939;-62
2022/09/20 12:45:54;;;;;;;;;;;;;;;;;;5026178;28;20513;-62
2022/09/20 12:48:20;;;;;;;;;;;;;;;;;;5026279;28;19962;-62
2022/09/20 12:53:48;;;;;;;;;;;;;;;;;;4945545;28;19934;-62
2022/09/20 12:56:14;;;;;;;;;;;;;;;;;;5010315;28;20392;-62
2022/09/20 12:58:43;;;;;;;;;;;;;;;;;;5026640;28;19905;-63
2022/09/20 13:01:09;;;;;;;;;;;;;;;;;;5026311;28;20005;-62
2022/09/20 13:03:35;;;;;;;;;;;;;;;;;;5025193;28;19999;-62
2022/09/20 13:06:01;;;;;;;;;;;;;;;;;;5046445;28;19938;-62
2022/09/20 13:08:28;;;;;;;;;;;;;;;;;;5045976;28;19905;-63
2022/09/20 13:10:56;;;;;;;;;;;;;;;;;;5025751;28;19909;-62
2022/09/20 13:13:22;;;;;;;;;;;;;;;;;;5025693;28;20289;-62
2022/09/20 13:15:49;;;;;;;;;;;;;;;;;;5025527;28;19905;-62
2022/09/20 13:18:15;;;;;;;;;;;;;;;;;;5025976;28;20428;-62
2022/09/20 13:20:43;;;;;;;;;;;;;;;;;;5025686;28;20004;-62
2022/09/20 13:23:09;;;;;;;;;;;;;;;;;;5025328;28;19913;-63
2022/09/20 13:25:36;;;;;;;;;;;;;;;;;;5025974;28;19963;-63
2022/09/20 13:28:03;;;;;;;;;;;;;;;;;;5025317;28;19912;-62
2022/09/20 13:30:32;;;;;;;;;;;;;;;;;;5026178;28;19976;-62
2022/09/20 13:32:58;;;;;;;;;;;;;;;;;;5025866;28;19959;-62
2022/09/20 13:35:24;;;;;;;;;;;;;;;;;;5025407;28;19961;-62
2022/09/20 13:37:51;;;;;;;;;;;;;;;;;;5025191;28;19909;-62
2022/09/20 13:40:18;;;;;;;;;;;;;;;;;;5025634;28;19905;-62
2022/09/20 13:42:44;;;;;;;;;;;;;;;;;;5025463;28;20422;-62
2022/09/20 13:45:10;;;;;;;;;;;;;;;;;;5025173;28;19959;-62
2022/09/20 13:47:35;;;;;;;;;;;;;;;;;;5025411;28;19909;-62
2022/09/20 13:50:01;;;;;;;;;;;;;;;;;;5007876;28;20003;-62
2022/09/20 13:52:29;;;;;;;;;;;;;;;;;;5025795;28;20554;-62
2022/09/20 13:54:55;;;;;;;;;;;;;;;;;;5025233;28;19909;-62
2022/09/20 13:57:21;;;;;;;;;;;;;;;;;;5025437;28;19905;-62
2022/09/20 13:59:47;;;;;;;;;;;;;;;;;;5025200;28;19991;-62
2022/09/20 14:02:13;;;;;;;;;;;;;;;;;;5024962;28;19949;-62
2022/09/20 14:04:39;;;;;;;;;;;;;;;;;;5025307;28;19920;-63
2022/09/20 14:07:05;;;;;;;;;;;;;;;;;;5025097;28;20528;-62
2022/09/20 14:09:31;;;;;;;;;;;;;;;;;;5026041;28;19988;-62
2022/09/20 14:11:57;;;;;;;;;;;;;;;;;;5025509;28;20011;-62
2022/09/20 14:14:24;;;;;;;;;;;;;;;;;;5025370;28;19951;-62
2022/09/20 14:16:51;;;;;;;;;;;;;;;;;;5024521;28;19948;-62
2022/09/20 14:19:19;;;;;;;;;;;;;;;;;;5025792;28;19968;-62
2022/09/20 14:21:45;;;;;;;;;;;;;;;;;;5029025;28;19909;-62
2022/09/20 14:24:12;;;;;;;;;;;;;;;;;;5029050;28;19909;-62
2022/09/20 14:26:39;;;;;;;;;;;;;;;;;;5028896;28;20003;-62
2022/09/20 14:29:04;;;;;;;;;;;;;;;;;;5028934;28;19944;-62
2022/09/20 14:31:31;;;;;;;;;;;;;;;;;;5029431;28;20367;-62
2022/09/20 14:33:57;;;;;;;;;;;;;;;;;;5028716;28;19928;-62
2022/09/20 14:36:24;;;;;;;;;;;;;;;;;;5029199;28;19984;-62
2022/09/20 14:38:51;;;;;;;;;;;;;;;;;;5028259;28;19915;-62
2022/09/20 14:41:17;;;;;;;;;;;;;;;;;;5028716;28;20019;-62
2022/09/20 14:43:44;;;;;;;;;;;;;;;;;;5028704;28;20463;-62
2022/09/20 14:46:10;;;;;;;;;;;;;;;;;;5028222;28;19909;-62
2022/09/20 14:48:37;;;;;;;;;;;;;;;;;;5028665;28;19909;-62
2022/09/20 14:51:03;;;;;;;;;;;;;;;;;;5028237;28;19916;-61
2022/09/20 14:53:30;;;;;;;;;;;;;;;;;;5029189;28;19917;-62
2022/09/20 14:55:56;;;;;;;;;;;;;;;;;;5028293;28;20289;-62
2022/09/20 14:58:23;;;;;;;;;;;;;;;;;;5028325;28;19916;-62
2022/09/20 15:00:49;;;;;;;;;;;;;;;;;;5010053;28;19909;-62
2022/09/20 15:03:15;;;;;;;;;;;;;;;;;;5043506;28;19921;-62
2022/09/20 15:05:41;;;;;;;;;;;;;;;;;;5049311;28;20287;-62
2022/09/20 15:08:08;;;;;;;;;;;;;;;;;;5047347;28;19966;-62
2022/09/20 15:10:34;;;;;;;;;;;;;;;;;;5048411;28;19995;-62
2022/09/20 15:13:00;;;;;;;;;;;;;;;;;;5046957;28;19920;-62
2022/09/20 15:15:26;;;;;;;;;;;;;;;;;;5046909;28;19923;-62
2022/09/20 15:17:52;;;;;;;;;;;;;;;;;;5046415;28;20299;-61
2022/09/20 15:20:20;;;;;;;;;;;;;;;;;;5046932;28;19911;-61
2022/09/20 15:22:46;;;;;;;;;;;;;;;;;;5046808;28;19950;-62
2022/09/20 15:25:12;;;;;;;;;;;;;;;;;;5047168;28;20029;-62
2022/09/20 15:27:38;;;;;;;;;;;;;;;;;;5046627;28;19916;-62
2022/09/20 15:30:04;;;;;;;;;;;;;;;;;;5045637;28;19904;-62
2022/09/20 15:32:30;;;;;;;;;;;;;;;;;;5046488;28;19922;-61
2022/09/20 15:34:56;;;;;;;;;;;;;;;;;;5046442;28;19912;-62
2022/09/20 15:37:23;;;;;;;;;;;;;;;;;;5046426;28;19905;-61
2022/09/20 15:39:50;;;;;;;;;;;;;;;;;;5028703;28;20390;-62
2022/09/20 15:42:20;;;;;;;;;;;;;;;;;;5046367;28;19913;-61
2022/09/20 15:44:46;;;;;;;;;;;;;;;;;;5046543;28;20014;-62
2022/09/20 15:47:12;;;;;;;;;;;;;;;;;;5046519;28;20003;-62
2022/09/20 15:49:37;;;;;;;;;;;;;;;;;;5046408;28;19905;-62
2022/09/20 15:52:04;;;;;;;;;;;;;;;;;;5045890;28;19955;-62
2022/09/20 15:54:30;;;;;;;;;;;;;;;;;;5046403;28;19950;-64
2022/09/20 15:56:56;;;;;;;;;;;;;;;;;;5045837;28;19909;-62
2022/09/20 15:59:22;;;;;;;;;;;;;;;;;;5045842;28;19971;-62
2022/09/20 16:01:50;;;;;;;;;;;;;;;;;;5045863;28;19955;-61
2022/09/20 16:04:18;;;;;;;;;;;;;;;;;;5046246;28;19912;-62
2022/09/20 16:06:45;;;;;;;0.75;0.50;;;;;;;;;;5045709;28;20693;-60
2022/09/20 16:09:11;;;;;;;0.45;0.30;;;;;;;;;;5045730;28;20029;-60
2022/09/20 16:11:37;;;;;;;0.82;0.50;;;;;;;;;;5006785;28;1112294;-61
2022/09/20 16:14:04;;;;;;;0.90;0.50;;;;;;;;;;5045934;28;20512;-61
2022/09/20 16:16:31;;;;;;;0.63;0.50;;;;;;;;;;5046765;28;20159;-60
2022/09/20 16:21:43;;;;;;;1.15;0.60;;;;;;;;;;5047188;28;20040;-60
2022/09/20 16:24:11;;;;;;;1.83;0.60;;;;;;;;;;5045862;28;20064;-61
2022/09/20 16:26:38;;;;;;;0.82;0.57;;;;;;;;;;5046463;28;20089;-61
2022/09/20 16:29:10;;;;;;;0.40;0.40;;;;;;;;;;5045643;28;20025;-61
2022/09/20 16:31:39;;;;;;;1.27;0.80;;;;;;;;;;5046356;28;20059;-60
2022/09/20 16:34:11;;;;;;;1.55;0.60;;;;;;;;;;5045691;28;20409;-61
2022/09/20 16:36:38;;;;;;;1.85;0.60;;;;;;;;;;5046171;28;20069;-61
2022/09/20 16:39:04;;;;;;;1.50;0.60;;;;;;;;;;5045797;28;20070;-61
2022/09/20 16:41:31;;;;;;;1.02;0.88;;;;;;;;;;5045602;28;20041;-61
2022/09/20 16:43:57;;;;;;;0.60;0.50;;;;;;;;;;5044543;28;20030;-61
2022/09/20 16:46:26;;;;;;;1.45;0.60;;;;;;;;;;5028232;28;20619;-61
2022/09/20 16:48:52;;;;;;;3.03;1.00;;;;;;;;;;5046397;28;20052;-57